sensor_id;sensor_type;location;lat;lon;timestamp;temperature;humidity
63313;DHT22;49442;45.640;13.812;2024-03-17T00:00:55;10.70;99.90
63313;DHT22;49442;45.640;13.812;2024-03-17T00:03:21;10.70;99.90
63313;DHT22;49442;45.640;13.812;2024-03-17T00:05:47;10.70;99.90
63313;DHT22;49442;45.640;13.812;2024-03-17T00:08:13;10.50;99.90
63313;DHT22;49442;45.640;13.812;2024-03-17T00:10:40;10.50;99.90
63313;DHT22;49442;45.640;13.812;2024-03-17T00:13:05;10.40;99.90
63313;DHT22;49442;45.640;13.812;2024-03-17T00:15:31;10.40;99.90
63313;DHT22;49442;45.640;13.812;2024-03-17T00:17:57;10.30;99.90
63313;DHT22;49442;45.640;13.812;2024-03-17T00:20:23;10.30;99.90
63313;DHT22;49442;45.640;13.812;2024-03-17T00:22:50;10.30;99.90
63313;DHT22;49442;45.640;13.812;2024-03-17T00:25:18;10.30;99.90
63313;DHT22;49442;45.640;13.812;2024-03-17T00:27:44;10.30;99.90
63313;DHT22;49442;45.640;13.812;2024-03-17T00:30:11;10.20;99.90
63313;DHT22;49442;45.640;13.812;2024-03-17T00:32:41;10.30;99.90
63313;DHT22;49442;45.640;13.812;2024-03-17T00:35:09;10.30;99.90
63313;DHT22;49442;45.640;13.812;2024-03-17T00:37:35;10.20;99.90
63313;DHT22;49442;45.640;13.812;2024-03-17T00:40:02;10.20;99.90
63313;DHT22;49442;45.640;13.812;2024-03-17T00:42:27;10.10;99.90
63313;DHT22;49442;45.640;13.812;2024-03-17T00:44:53;10.10;99.90
63313;DHT22;49442;45.640;13.812;2024-03-17T00:47:19;10.10;99.90
63313;DHT22;49442;45.640;13.812;2024-03-17T00:49:45;10.10;99.90
63313;DHT22;49442;45.640;13.812;2024-03-17T00:52:11;10.00;99.90
63313;DHT22;49442;45.640;13.812;2024-03-17T00:54:36;10.00;99.90
63313;DHT22;49442;45.640;13.812;2024-03-17T00:57:02;10.00;99.90
63313;DHT22;49442;45.640;13.812;2024-03-17T00:59:28;10.00;99.90
63313;DHT22;49442;45.640;13.812;2024-03-17T01:01:53;10.00;99.90
63313;DHT22;49442;45.640;13.812;2024-03-17T01:04:19;10.00;99.90
63313;DHT22;49442;45.640;13.812;2024-03-17T01:06:46;10.00;99.90
63313;DHT22;49442;45.640;13.812;2024-03-17T01:09:12;10.00;99.90
63313;DHT22;49442;45.640;13.812;2024-03-17T01:11:37;10.00;99.90
63313;DHT22;49442;45.640;13.812;2024-03-17T01:14:04;9.90;99.90
63313;DHT22;49442;45.640;13.812;2024-03-17T01:16:30;9.90;99.90
63313;DHT22;49442;45.640;13.812;2024-03-17T01:18:55;9.90;99.90
63313;DHT22;49442;45.640;13.812;2024-03-17T01:21:22;9.80;99.90
63313;DHT22;49442;45.640;13.812;2024-03-17T01:23:48;9.80;99.90
63313;DHT22;49442;45.640;13.812;2024-03-17T01:26:15;9.80;99.90
63313;DHT22;49442;45.640;13.812;2024-03-17T01:28:40;9.80;99.90
63313;DHT22;49442;45.640;13.812;2024-03-17T01:31:06;9.90;99.90
63313;DHT22;49442;45.640;13.812;2024-03-17T01:33:32;9.80;99.90
63313;DHT22;49442;45.640;13.812;2024-03-17T01:35:58;9.80;99.90
63313;DHT22;49442;45.640;13.812;2024-03-17T01:38:24;9.80;99.90
63313;DHT22;49442;45.640;13.812;2024-03-17T01:40:49;9.80;99.90
63313;DHT22;49442;45.640;13.812;2024-03-17T01:43:15;9.80;99.90
63313;DHT22;49442;45.640;13.812;2024-03-17T01:45:41;9.80;99.90
63313;DHT22;49442;45.640;13.812;2024-03-17T01:48:13;9.80;99.90
63313;DHT22;49442;45.640;13.812;2024-03-17T01:50:41;9.80;99.90
63313;DHT22;49442;45.640;13.812;2024-03-17T01:53:08;9.80;99.90
63313;DHT22;49442;45.640;13.812;2024-03-17T01:55:38;9.80;99.90
63313;DHT22;49442;45.640;13.812;2024-03-17T01:58:05;9.80;99.90
63313;DHT22;49442;45.640;13.812;2024-03-17T02:00:36;9.70;99.90
63313;DHT22;49442;45.640;13.812;2024-03-17T02:03:06;9.80;99.90
63313;DHT22;49442;45.640;13.812;2024-03-17T02:05:32;9.70;99.90
63313;DHT22;49442;45.640;13.812;2024-03-17T02:07:59;9.70;99.90
63313;DHT22;49442;45.640;13.812;2024-03-17T02:10:25;9.90;99.90
63313;DHT22;49442;45.640;13.812;2024-03-17T02:12:51;10.00;99.90
63313;DHT22;49442;45.640;13.812;2024-03-17T02:15:17;10.00;99.90
63313;DHT22;49442;45.640;13.812;2024-03-17T02:17:43;10.10;99.90
63313;DHT22;49442;45.640;13.812;2024-03-17T02:20:09;9.90;99.90
63313;DHT22;49442;45.640;13.812;2024-03-17T02:22:37;9.80;99.90
63313;DHT22;49442;45.640;13.812;2024-03-17T02:25:03;9.70;99.90
63313;DHT22;49442;45.640;13.812;2024-03-17T02:27:29;9.70;99.90
63313;DHT22;49442;45.640;13.812;2024-03-17T02:29:55;9.60;99.90
63313;DHT22;49442;45.640;13.812;2024-03-17T02:32:21;9.60;99.90
63313;DHT22;49442;45.640;13.812;2024-03-17T02:34:48;9.60;99.90
63313;DHT22;49442;45.640;13.812;2024-03-17T02:37:14;9.60;99.90
63313;DHT22;49442;45.640;13.812;2024-03-17T02:39:40;9.50;99.90
63313;DHT22;49442;45.640;13.812;2024-03-17T02:42:07;9.50;99.90
63313;DHT22;49442;45.640;13.812;2024-03-17T02:44:34;9.50;99.90
63313;DHT22;49442;45.640;13.812;2024-03-17T02:47:01;9.40;99.90
63313;DHT22;49442;45.640;13.812;2024-03-17T02:49:28;9.50;99.90
63313;DHT22;49442;45.640;13.812;2024-03-17T02:52:01;9.50;99.90
63313;DHT22;49442;45.640;13.812;2024-03-17T02:54:26;9.50;99.90
63313;DHT22;49442;45.640;13.812;2024-03-17T02:56:52;9.50;99.90
63313;DHT22;49442;45.640;13.812;2024-03-17T02:59:18;9.50;99.90
63313;DHT22;49442;45.640;13.812;2024-03-17T03:01:44;9.50;99.90
63313;DHT22;49442;45.640;13.812;2024-03-17T03:04:10;9.40;99.90
63313;DHT22;49442;45.640;13.812;2024-03-17T03:06:36;9.40;99.90
63313;DHT22;49442;45.640;13.812;2024-03-17T03:09:02;9.40;99.90
63313;DHT22;49442;45.640;13.812;2024-03-17T03:11:30;9.40;99.90
63313;DHT22;49442;45.640;13.812;2024-03-17T03:13:56;9.40;99.90
63313;DHT22;49442;45.640;13.812;2024-03-17T03:16:22;9.40;99.90
63313;DHT22;49442;45.640;13.812;2024-03-17T03:18:50;9.50;99.90
63313;DHT22;49442;45.640;13.812;2024-03-17T03:21:16;9.40;99.90
63313;DHT22;49442;45.640;13.812;2024-03-17T03:23:44;9.50;99.90
63313;DHT22;49442;45.640;13.812;2024-03-17T03:26:10;9.50;99.90
63313;DHT22;49442;45.640;13.812;2024-03-17T03:28:37;9.50;99.90
63313;DHT22;49442;45.640;13.812;2024-03-17T03:31:04;9.50;99.90
63313;DHT22;49442;45.640;13.812;2024-03-17T03:33:30;9.50;99.90
63313;DHT22;49442;45.640;13.812;2024-03-17T03:35:55;9.40;99.90
63313;DHT22;49442;45.640;13.812;2024-03-17T03:38:22;9.40;99.90
63313;DHT22;49442;45.640;13.812;2024-03-17T03:40:48;9.40;99.90
63313;DHT22;49442;45.640;13.812;2024-03-17T03:43:14;9.30;99.90
63313;DHT22;49442;45.640;13.812;2024-03-17T03:45:40;9.30;99.90
63313;DHT22;49442;45.640;13.812;2024-03-17T03:48:07;9.40;99.90
63313;DHT22;49442;45.640;13.812;2024-03-17T03:50:37;9.40;99.90
63313;DHT22;49442;45.640;13.812;2024-03-17T03:53:04;9.30;99.90
63313;DHT22;49442;45.640;13.812;2024-03-17T03:55:31;9.30;99.90
63313;DHT22;49442;45.640;13.812;2024-03-17T03:57:57;9.20;99.90
63313;DHT22;49442;45.640;13.812;2024-03-17T04:00:22;9.20;99.90
63313;DHT22;49442;45.640;13.812;2024-03-17T04:02:50;9.20;99.90
63313;DHT22;49442;45.640;13.812;2024-03-17T04:05:18;9.20;99.90
63313;DHT22;49442;45.640;13.812;2024-03-17T04:07:44;9.10;99.90
63313;DHT22;49442;45.640;13.812;2024-03-17T04:10:12;9.10;99.90
63313;DHT22;49442;45.640;13.812;2024-03-17T04:12:38;9.10;99.90
63313;DHT22;49442;45.640;13.812;2024-03-17T04:15:04;9.10;99.90
63313;DHT22;49442;45.640;13.812;2024-03-17T04:17:32;9.10;99.90
63313;DHT22;49442;45.640;13.812;2024-03-17T04:19:58;9.10;99.90
63313;DHT22;49442;45.640;13.812;2024-03-17T04:22:24;9.10;99.90
63313;DHT22;49442;45.640;13.812;2024-03-17T04:24:51;9.10;99.90
63313;DHT22;49442;45.640;13.812;2024-03-17T04:27:20;9.10;99.90
63313;DHT22;49442;45.640;13.812;2024-03-17T04:29:50;9.10;99.90
63313;DHT22;49442;45.640;13.812;2024-03-17T04:32:15;9.10;99.90
63313;DHT22;49442;45.640;13.812;2024-03-17T04:34:41;9.00;99.90
63313;DHT22;49442;45.640;13.812;2024-03-17T04:37:09;9.00;99.90
63313;DHT22;49442;45.640;13.812;2024-03-17T04:39:38;9.00;99.90
63313;DHT22;49442;45.640;13.812;2024-03-17T04:42:05;8.90;99.90
63313;DHT22;49442;45.640;13.812;2024-03-17T04:44:31;8.90;99.90
63313;DHT22;49442;45.640;13.812;2024-03-17T04:46:57;9.00;99.90
63313;DHT22;49442;45.640;13.812;2024-03-17T04:49:23;9.00;99.90
63313;DHT22;49442;45.640;13.812;2024-03-17T04:51:48;9.00;99.90
63313;DHT22;49442;45.640;13.812;2024-03-17T04:54:14;8.90;99.90
63313;DHT22;49442;45.640;13.812;2024-03-17T04:56:40;8.90;99.90
63313;DHT22;49442;45.640;13.812;2024-03-17T04:59:05;8.90;99.90
63313;DHT22;49442;45.640;13.812;2024-03-17T05:01:31;8.90;99.90
63313;DHT22;49442;45.640;13.812;2024-03-17T05:04:04;8.90;99.90
63313;DHT22;49442;45.640;13.812;2024-03-17T05:06:29;8.90;99.90
63313;DHT22;49442;45.640;13.812;2024-03-17T05:08:56;8.90;99.90
63313;DHT22;49442;45.640;13.812;2024-03-17T05:11:21;8.90;99.90
63313;DHT22;49442;45.640;13.812;2024-03-17T05:13:49;9.00;99.90
63313;DHT22;49442;45.640;13.812;2024-03-17T05:16:15;8.90;99.90
63313;DHT22;49442;45.640;13.812;2024-03-17T05:18:41;8.90;99.90
63313;DHT22;49442;45.640;13.812;2024-03-17T05:21:07;8.90;99.90
63313;DHT22;49442;45.640;13.812;2024-03-17T05:23:36;9.00;99.90
63313;DHT22;49442;45.640;13.812;2024-03-17T05:26:05;8.90;99.90
63313;DHT22;49442;45.640;13.812;2024-03-17T05:28:30;9.00;99.90
63313;DHT22;49442;45.640;13.812;2024-03-17T05:30:56;9.00;99.90
63313;DHT22;49442;45.640;13.812;2024-03-17T05:33:23;9.00;99.90
63313;DHT22;49442;45.640;13.812;2024-03-17T05:35:59;9.00;99.90
63313;DHT22;49442;45.640;13.812;2024-03-17T05:38:29;9.10;99.90
63313;DHT22;49442;45.640;13.812;2024-03-17T05:41:04;9.10;99.90
63313;DHT22;49442;45.640;13.812;2024-03-17T05:43:32;9.20;99.90
63313;DHT22;49442;45.640;13.812;2024-03-17T05:46:11;9.20;99.90
63313;DHT22;49442;45.640;13.812;2024-03-17T05:48:39;9.30;99.90
63313;DHT22;49442;45.640;13.812;2024-03-17T05:51:06;9.30;99.90
63313;DHT22;49442;45.640;13.812;2024-03-17T05:53:32;9.30;99.90
63313;DHT22;49442;45.640;13.812;2024-03-17T05:55:59;9.40;99.90
63313;DHT22;49442;45.640;13.812;2024-03-17T05:58:25;9.50;99.90
63313;DHT22;49442;45.640;13.812;2024-03-17T06:00:51;9.60;99.90
63313;DHT22;49442;45.640;13.812;2024-03-17T06:03:16;9.60;99.90
63313;DHT22;49442;45.640;13.812;2024-03-17T06:05:43;9.80;99.90
63313;DHT22;49442;45.640;13.812;2024-03-17T06:08:11;9.90;99.90
63313;DHT22;49442;45.640;13.812;2024-03-17T06:10:37;9.90;99.90
63313;DHT22;49442;45.640;13.812;2024-03-17T06:13:04;10.00;99.90
63313;DHT22;49442;45.640;13.812;2024-03-17T06:15:30;10.00;99.90
63313;DHT22;49442;45.640;13.812;2024-03-17T06:17:56;10.00;99.90
63313;DHT22;49442;45.640;13.812;2024-03-17T06:20:23;10.00;99.90
63313;DHT22;49442;45.640;13.812;2024-03-17T06:22:50;10.10;99.90
63313;DHT22;49442;45.640;13.812;2024-03-17T06:25:16;10.10;99.90
63313;DHT22;49442;45.640;13.812;2024-03-17T06:27:42;10.30;99.90
63313;DHT22;49442;45.640;13.812;2024-03-17T06:30:13;10.40;99.90
63313;DHT22;49442;45.640;13.812;2024-03-17T06:32:43;10.40;99.90
63313;DHT22;49442;45.640;13.812;2024-03-17T06:35:13;10.50;99.90
63313;DHT22;49442;45.640;13.812;2024-03-17T06:37:41;10.50;99.90
63313;DHT22;49442;45.640;13.812;2024-03-17T06:40:09;10.60;99.90
63313;DHT22;49442;45.640;13.812;2024-03-17T06:42:38;10.60;99.90
63313;DHT22;49442;45.640;13.812;2024-03-17T06:45:05;10.70;99.90
63313;DHT22;49442;45.640;13.812;2024-03-17T06:47:31;10.80;99.90
63313;DHT22;49442;45.640;13.812;2024-03-17T06:49:56;10.90;99.90
63313;DHT22;49442;45.640;13.812;2024-03-17T06:52:22;11.00;99.90
63313;DHT22;49442;45.640;13.812;2024-03-17T06:54:48;11.00;99.90
63313;DHT22;49442;45.640;13.812;2024-03-17T06:57:17;11.10;99.90
63313;DHT22;49442;45.640;13.812;2024-03-17T06:59:42;11.20;99.90
63313;DHT22;49442;45.640;13.812;2024-03-17T07:02:10;11.20;99.90
63313;DHT22;49442;45.640;13.812;2024-03-17T07:04:38;11.40;99.90
63313;DHT22;49442;45.640;13.812;2024-03-17T07:07:03;11.40;99.90
63313;DHT22;49442;45.640;13.812;2024-03-17T07:09:29;11.60;99.90
63313;DHT22;49442;45.640;13.812;2024-03-17T07:11:55;11.70;99.90
63313;DHT22;49442;45.640;13.812;2024-03-17T07:14:20;11.80;99.90
63313;DHT22;49442;45.640;13.812;2024-03-17T07:16:46;11.90;99.90
63313;DHT22;49442;45.640;13.812;2024-03-17T07:19:12;12.00;99.90
63313;DHT22;49442;45.640;13.812;2024-03-17T07:21:37;12.10;99.90
63313;DHT22;49442;45.640;13.812;2024-03-17T07:24:03;12.30;99.90
63313;DHT22;49442;45.640;13.812;2024-03-17T07:26:30;12.30;99.90
63313;DHT22;49442;45.640;13.812;2024-03-17T07:28:56;12.30;99.90
63313;DHT22;49442;45.640;13.812;2024-03-17T07:31:22;12.40;99.90
63313;DHT22;49442;45.640;13.812;2024-03-17T07:33:47;12.50;99.90
63313;DHT22;49442;45.640;13.812;2024-03-17T07:36:14;12.60;99.90
63313;DHT22;49442;45.640;13.812;2024-03-17T07:38:40;12.70;99.90
63313;DHT22;49442;45.640;13.812;2024-03-17T07:41:09;12.80;99.90
63313;DHT22;49442;45.640;13.812;2024-03-17T07:43:36;12.80;99.90
63313;DHT22;49442;45.640;13.812;2024-03-17T07:46:10;12.90;99.90
63313;DHT22;49442;45.640;13.812;2024-03-17T07:48:39;13.00;99.90
63313;DHT22;49442;45.640;13.812;2024-03-17T07:51:07;13.10;99.90
63313;DHT22;49442;45.640;13.812;2024-03-17T07:53:38;13.10;99.90
63313;DHT22;49442;45.640;13.812;2024-03-17T07:56:11;13.10;99.90
63313;DHT22;49442;45.640;13.812;2024-03-17T07:58:39;13.10;99.90
63313;DHT22;49442;45.640;13.812;2024-03-17T08:01:07;13.10;99.90
63313;DHT22;49442;45.640;13.812;2024-03-17T08:03:36;13.20;99.90
63313;DHT22;49442;45.640;13.812;2024-03-17T08:06:03;13.40;99.90
63313;DHT22;49442;45.640;13.812;2024-03-17T08:08:30;13.50;99.90
63313;DHT22;49442;45.640;13.812;2024-03-17T08:10:56;13.70;99.90
63313;DHT22;49442;45.640;13.812;2024-03-17T08:13:22;13.70;99.90
63313;DHT22;49442;45.640;13.812;2024-03-17T08:16:01;13.90;99.90
63313;DHT22;49442;45.640;13.812;2024-03-17T08:18:31;14.00;99.90
63313;DHT22;49442;45.640;13.812;2024-03-17T08:20:57;14.10;99.90
63313;DHT22;49442;45.640;13.812;2024-03-17T08:23:23;14.30;99.90
63313;DHT22;49442;45.640;13.812;2024-03-17T08:25:59;14.40;99.90
63313;DHT22;49442;45.640;13.812;2024-03-17T08:28:26;14.50;99.90
63313;DHT22;49442;45.640;13.812;2024-03-17T08:30:54;14.60;99.90
63313;DHT22;49442;45.640;13.812;2024-03-17T08:33:20;14.70;99.90
63313;DHT22;49442;45.640;13.812;2024-03-17T08:38:20;15.20;99.90
63313;DHT22;49442;45.640;13.812;2024-03-17T08:40:47;15.40;99.90
63313;DHT22;49442;45.640;13.812;2024-03-17T08:43:12;15.70;99.90
63313;DHT22;49442;45.640;13.812;2024-03-17T08:45:38;16.00;99.90
63313;DHT22;49442;45.640;13.812;2024-03-17T08:48:04;16.20;99.90
63313;DHT22;49442;45.640;13.812;2024-03-17T08:50:30;16.60;99.90
63313;DHT22;49442;45.640;13.812;2024-03-17T08:52:59;17.20;99.90
63313;DHT22;49442;45.640;13.812;2024-03-17T08:55:24;17.70;99.90
63313;DHT22;49442;45.640;13.812;2024-03-17T08:57:50;18.90;99.90
63313;DHT22;49442;45.640;13.812;2024-03-17T09:00:16;19.70;99.90
63313;DHT22;49442;45.640;13.812;2024-03-17T09:02:41;19.90;99.90
63313;DHT22;49442;45.640;13.812;2024-03-17T09:05:07;20.10;99.90
63313;DHT22;49442;45.640;13.812;2024-03-17T09:07:33;21.20;99.90
63313;DHT22;49442;45.640;13.812;2024-03-17T09:09:59;23.10;99.90
63313;DHT22;49442;45.640;13.812;2024-03-17T09:12:26;24.80;99.90
63313;DHT22;49442;45.640;13.812;2024-03-17T09:14:53;24.10;99.90
63313;DHT22;49442;45.640;13.812;2024-03-17T09:17:18;23.40;99.90
63313;DHT22;49442;45.640;13.812;2024-03-17T09:19:46;22.40;99.90
63313;DHT22;49442;45.640;13.812;2024-03-17T09:22:13;22.00;99.90
63313;DHT22;49442;45.640;13.812;2024-03-17T09:24:39;21.80;99.90
63313;DHT22;49442;45.640;13.812;2024-03-17T09:27:06;21.20;99.90
63313;DHT22;49442;45.640;13.812;2024-03-17T09:29:31;20.60;99.90
63313;DHT22;49442;45.640;13.812;2024-03-17T09:31:58;20.20;99.90
63313;DHT22;49442;45.640;13.812;2024-03-17T09:34:24;20.10;99.90
63313;DHT22;49442;45.640;13.812;2024-03-17T09:36:50;20.00;99.90
63313;DHT22;49442;45.640;13.812;2024-03-17T09:39:15;19.80;99.90
63313;DHT22;49442;45.640;13.812;2024-03-17T09:41:41;19.70;99.90
63313;DHT22;49442;45.640;13.812;2024-03-17T09:44:11;19.50;99.90
63313;DHT22;49442;45.640;13.812;2024-03-17T09:46:38;19.40;99.90
63313;DHT22;49442;45.640;13.812;2024-03-17T09:49:04;19.40;99.90
63313;DHT22;49442;45.640;13.812;2024-03-17T09:51:34;19.30;99.90
63313;DHT22;49442;45.640;13.812;2024-03-17T09:54:17;19.20;99.90
63313;DHT22;49442;45.640;13.812;2024-03-17T09:56:42;19.50;99.90
63313;DHT22;49442;45.640;13.812;2024-03-17T09:59:08;22.10;99.90
63313;DHT22;49442;45.640;13.812;2024-03-17T10:01:34;24.60;99.90
63313;DHT22;49442;45.640;13.812;2024-03-17T10:03:59;24.40;99.40
63313;DHT22;49442;45.640;13.812;2024-03-17T10:06:30;22.70;99.90
63313;DHT22;49442;45.640;13.812;2024-03-17T10:08:57;21.60;99.90
63313;DHT22;49442;45.640;13.812;2024-03-17T10:11:33;21.10;99.90
63313;DHT22;49442;45.640;13.812;2024-03-17T10:14:05;21.30;99.90
63313;DHT22;49442;45.640;13.812;2024-03-17T10:16:32;22.30;99.90
63313;DHT22;49442;45.640;13.812;2024-03-17T10:19:12;23.50;99.90
63313;DHT22;49442;45.640;13.812;2024-03-17T10:21:45;24.70;99.90
63313;DHT22;49442;45.640;13.812;2024-03-17T10:24:20;25.50;98.70
63313;DHT22;49442;45.640;13.812;2024-03-17T10:26:51;26.90;96.90
63313;DHT22;49442;45.640;13.812;2024-03-17T10:29:25;27.70;94.40
63313;DHT22;49442;45.640;13.812;2024-03-17T10:31:55;27.60;93.50
63313;DHT22;49442;45.640;13.812;2024-03-17T10:34:23;27.60;92.20
63313;DHT22;49442;45.640;13.812;2024-03-17T10:39:32;25.20;94.40
63313;DHT22;49442;45.640;13.812;2024-03-17T10:42:04;24.20;96.10
63313;DHT22;49442;45.640;13.812;2024-03-17T10:44:31;22.50;99.60
63313;DHT22;49442;45.640;13.812;2024-03-17T10:46:59;22.70;99.90
63313;DHT22;49442;45.640;13.812;2024-03-17T10:49:36;22.10;99.90
63313;DHT22;49442;45.640;13.812;2024-03-17T10:52:14;20.90;99.90
63313;DHT22;49442;45.640;13.812;2024-03-17T10:54:40;20.00;99.90
63313;DHT22;49442;45.640;13.812;2024-03-17T10:59:41;19.30;99.90
63313;DHT22;49442;45.640;13.812;2024-03-17T11:02:22;19.00;99.90
63313;DHT22;49442;45.640;13.812;2024-03-17T11:04:55;18.90;99.90
63313;DHT22;49442;45.640;13.812;2024-03-17T11:07:22;18.70;99.90
63313;DHT22;49442;45.640;13.812;2024-03-17T11:09:50;18.60;99.90
63313;DHT22;49442;45.640;13.812;2024-03-17T11:12:54;18.60;99.90
63313;DHT22;49442;45.640;13.812;2024-03-17T11:20:41;18.50;99.90
63313;DHT22;49442;45.640;13.812;2024-03-17T11:23:07;18.50;99.90
63313;DHT22;49442;45.640;13.812;2024-03-17T11:25:38;18.40;99.90
63313;DHT22;49442;45.640;13.812;2024-03-17T11:28:05;18.50;99.90
63313;DHT22;49442;45.640;13.812;2024-03-17T11:41:39;18.20;99.90
63313;DHT22;49442;45.640;13.812;2024-03-17T11:46:44;18.20;99.90
63313;DHT22;49442;45.640;13.812;2024-03-17T11:49:33;18.20;99.90
63313;DHT22;49442;45.640;13.812;2024-03-17T11:52:01;18.20;99.90
63313;DHT22;49442;45.640;13.812;2024-03-17T11:54:32;18.40;99.90
63313;DHT22;49442;45.640;13.812;2024-03-17T11:57:03;18.50;99.90
63313;DHT22;49442;45.640;13.812;2024-03-17T11:59:29;18.40;99.90
63313;DHT22;49442;45.640;13.812;2024-03-17T12:01:55;18.20;99.90
63313;DHT22;49442;45.640;13.812;2024-03-17T12:04:23;18.30;99.90
63313;DHT22;49442;45.640;13.812;2024-03-17T12:06:54;18.30;99.90
63313;DHT22;49442;45.640;13.812;2024-03-17T12:09:30;18.40;99.90
63313;DHT22;49442;45.640;13.812;2024-03-17T12:12:05;18.30;99.90
63313;DHT22;49442;45.640;13.812;2024-03-17T12:14:32;18.20;99.90
63313;DHT22;49442;45.640;13.812;2024-03-17T12:17:01;18.40;99.90
63313;DHT22;49442;45.640;13.812;2024-03-17T12:19:28;18.40;99.90
63313;DHT22;49442;45.640;13.812;2024-03-17T12:21:55;18.30;99.90
63313;DHT22;49442;45.640;13.812;2024-03-17T12:24:23;18.20;99.90
63313;DHT22;49442;45.640;13.812;2024-03-17T12:26:50;18.30;99.90
63313;DHT22;49442;45.640;13.812;2024-03-17T12:31:54;18.20;99.90
63313;DHT22;49442;45.640;13.812;2024-03-17T12:34:21;18.10;99.90
63313;DHT22;49442;45.640;13.812;2024-03-17T12:36:48;18.20;99.90
63313;DHT22;49442;45.640;13.812;2024-03-17T12:42:08;18.20;99.90
63313;DHT22;49442;45.640;13.812;2024-03-17T12:47:20;18.50;99.90
63313;DHT22;49442;45.640;13.812;2024-03-17T12:49:56;18.60;99.90
63313;DHT22;49442;45.640;13.812;2024-03-17T12:52:32;18.70;99.90
63313;DHT22;49442;45.640;13.812;2024-03-17T12:55:09;18.50;99.90
63313;DHT22;49442;45.640;13.812;2024-03-17T13:01:08;18.20;99.90
63313;DHT22;49442;45.640;13.812;2024-03-17T13:03:37;18.10;99.90
63313;DHT22;49442;45.640;13.812;2024-03-17T13:06:05;18.10;99.90
63313;DHT22;49442;45.640;13.812;2024-03-17T13:08:32;18.20;99.90
63313;DHT22;49442;45.640;13.812;2024-03-17T13:10:59;18.30;99.90
63313;DHT22;49442;45.640;13.812;2024-03-17T13:13:25;18.40;99.90
63313;DHT22;49442;45.640;13.812;2024-03-17T13:15:50;18.50;99.90
63313;DHT22;49442;45.640;13.812;2024-03-17T13:18:17;18.80;99.90
63313;DHT22;49442;45.640;13.812;2024-03-17T13:20:44;18.90;99.90
63313;DHT22;49442;45.640;13.812;2024-03-17T13:23:11;18.90;99.90
63313;DHT22;49442;45.640;13.812;2024-03-17T13:25:36;19.00;99.90
63313;DHT22;49442;45.640;13.812;2024-03-17T13:28:04;19.10;99.90
63313;DHT22;49442;45.640;13.812;2024-03-17T13:30:30;19.00;99.90
63313;DHT22;49442;45.640;13.812;2024-03-17T13:32:57;18.80;99.90
63313;DHT22;49442;45.640;13.812;2024-03-17T13:35:29;18.70;99.90
63313;DHT22;49442;45.640;13.812;2024-03-17T13:37:56;18.70;99.90
63313;DHT22;49442;45.640;13.812;2024-03-17T13:40:26;18.70;99.90
63313;DHT22;49442;45.640;13.812;2024-03-17T13:42:53;18.70;99.90
63313;DHT22;49442;45.640;13.812;2024-03-17T13:45:20;18.60;99.90
63313;DHT22;49442;45.640;13.812;2024-03-17T13:50:20;18.60;99.90
63313;DHT22;49442;45.640;13.812;2024-03-17T13:52:46;18.70;99.90
63313;DHT22;49442;45.640;13.812;2024-03-17T13:55:15;18.70;99.90
63313;DHT22;49442;45.640;13.812;2024-03-17T13:57:45;18.70;99.90
63313;DHT22;49442;45.640;13.812;2024-03-17T14:00:12;18.60;99.90
63313;DHT22;49442;45.640;13.812;2024-03-17T14:02:45;18.60;99.90
63313;DHT22;49442;45.640;13.812;2024-03-17T14:05:12;18.60;99.90
63313;DHT22;49442;45.640;13.812;2024-03-17T14:07:38;18.70;99.90
63313;DHT22;49442;45.640;13.812;2024-03-17T14:10:05;18.60;99.90
63313;DHT22;49442;45.640;13.812;2024-03-17T14:12:31;18.40;99.90
63313;DHT22;49442;45.640;13.812;2024-03-17T14:14:57;18.30;99.90
63313;DHT22;49442;45.640;13.812;2024-03-17T14:17:23;18.30;99.90
63313;DHT22;49442;45.640;13.812;2024-03-17T14:19:48;18.30;99.90
63313;DHT22;49442;45.640;13.812;2024-03-17T14:22:14;18.30;99.90
63313;DHT22;49442;45.640;13.812;2024-03-17T14:24:40;18.40;99.90
63313;DHT22;49442;45.640;13.812;2024-03-17T14:27:07;18.40;99.90
63313;DHT22;49442;45.640;13.812;2024-03-17T14:29:33;18.20;99.90
63313;DHT22;49442;45.640;13.812;2024-03-17T14:31:58;18.00;99.90
63313;DHT22;49442;45.640;13.812;2024-03-17T14:34:24;17.90;99.90
63313;DHT22;49442;45.640;13.812;2024-03-17T14:36:52;17.80;99.90
63313;DHT22;49442;45.640;13.812;2024-03-17T14:39:18;17.70;99.90
63313;DHT22;49442;45.640;13.812;2024-03-17T14:41:43;17.70;99.90
63313;DHT22;49442;45.640;13.812;2024-03-17T14:44:09;17.70;99.90
63313;DHT22;49442;45.640;13.812;2024-03-17T14:46:34;17.60;99.90
63313;DHT22;49442;45.640;13.812;2024-03-17T14:49:00;17.60;99.90
63313;DHT22;49442;45.640;13.812;2024-03-17T14:51:26;17.50;99.90
63313;DHT22;49442;45.640;13.812;2024-03-17T14:53:53;17.50;99.90
63313;DHT22;49442;45.640;13.812;2024-03-17T14:56:18;17.60;99.90
63313;DHT22;49442;45.640;13.812;2024-03-17T14:58:45;17.70;99.90
63313;DHT22;49442;45.640;13.812;2024-03-17T15:01:12;17.70;99.90
63313;DHT22;49442;45.640;13.812;2024-03-17T15:03:38;17.50;99.90
63313;DHT22;49442;45.640;13.812;2024-03-17T15:06:09;17.50;99.90
63313;DHT22;49442;45.640;13.812;2024-03-17T15:08:35;17.40;99.90
63313;DHT22;49442;45.640;13.812;2024-03-17T15:11:00;17.30;99.90
63313;DHT22;49442;45.640;13.812;2024-03-17T15:13:26;17.30;99.90
63313;DHT22;49442;45.640;13.812;2024-03-17T15:15:52;17.30;99.90
63313;DHT22;49442;45.640;13.812;2024-03-17T15:18:20;17.30;99.90
63313;DHT22;49442;45.640;13.812;2024-03-17T15:20:53;17.20;99.90
63313;DHT22;49442;45.640;13.812;2024-03-17T15:23:20;17.10;99.90
63313;DHT22;49442;45.640;13.812;2024-03-17T15:25:46;17.10;99.90
63313;DHT22;49442;45.640;13.812;2024-03-17T15:28:12;17.10;99.90
63313;DHT22;49442;45.640;13.812;2024-03-17T15:30:38;17.00;99.90
63313;DHT22;49442;45.640;13.812;2024-03-17T15:33:04;17.10;99.90
63313;DHT22;49442;45.640;13.812;2024-03-17T15:35:30;17.00;99.90
63313;DHT22;49442;45.640;13.812;2024-03-17T15:37:57;16.90;99.90
63313;DHT22;49442;45.640;13.812;2024-03-17T15:40:23;16.80;99.90
63313;DHT22;49442;45.640;13.812;2024-03-17T15:42:50;16.70;99.90
63313;DHT22;49442;45.640;13.812;2024-03-17T15:45:16;16.60;99.90
63313;DHT22;49442;45.640;13.812;2024-03-17T15:47:46;16.50;99.90
63313;DHT22;49442;45.640;13.812;2024-03-17T15:50:12;16.40;99.90
63313;DHT22;49442;45.640;13.812;2024-03-17T15:52:41;16.30;99.90
63313;DHT22;49442;45.640;13.812;2024-03-17T15:55:08;16.20;99.90
63313;DHT22;49442;45.640;13.812;2024-03-17T15:57:34;16.00;99.90
63313;DHT22;49442;45.640;13.812;2024-03-17T16:00:00;16.00;99.90
63313;DHT22;49442;45.640;13.812;2024-03-17T16:02:26;15.90;99.90